FABL/BFN METAR and TAF weather

Enter ICAO airport designator
Station Type Date Time Source
FABL METAR 2020/11/25 21:00 UTC NOAA

FABL 252100Z AUTO 21002KT //// // ////// 14/03 Q1018


Station Type Date Time Source
FABL Decoded METAR 2020/11/25 21:00 UTC NOAA

Bloemfontein, Bloemfontein Airport, South Africa (FABL) 29-06S 026-18E 1400M
Nov 25, 2020 - 04:00 PM EST / 2020.11.25 2100 UTC
Wind: from the SSW (210 degrees) at 2 MPH (2 KT):0
Temperature: 57 F (14 C)
Dew Point: 37 F (3 C)
Relative Humidity: 47%
Pressure (altimeter): 30.06 in. Hg (1018 hPa)
ob: FABL 252100Z AUTO 21002KT //// // ////// 14/03 Q1018
cycle: 21

Station Type Date Time Source
FABL TAF 2020/11/25 18:03 UTC NOAA

TAF TAF FABL 251600Z 2518/2618 VRB03KT CAVOK TX30/2613Z TN11/2604Z
BECMG 2607/2609 32010KT
BECMG 2615/2617 VRB03KT

Example: see airport list